Sipesville, PA (15561)

1:00 PM EST on November 26, 2014 (GMT -0500)
Out in the country | Change Station
CLOSE
Current Station
Personal Weather Station
Location: Somerset, PA
Elevation: 2200 ft
Nearby Weather Stations
Active Advisory: Winter Storm Warning Active Notice: Public Information Statement

Elev 2200 ft 40.07 °N, 79.17 °W | Updated 3 seconds ago

Snow
Snow
32.7 °F
Feels Like 33 °F
N
0.0
Wind Variable Wind from NE
Gusts 0.0 mph

Today
High -- | Low -- °F
--% Chance of Precip.
Yesterday
High -- | Low -- °F
Precip. -- in
7:14 AM 4:53 PM
Waxing Crescent, 21% visible
Pressure 30.06 in
Visibility 0.5 miles
Clouds Overcast 200 ft
Windchill 33 °F
Dew Point 31 °F
Humidity 95%
Rainfall 0.00 in
Snow Depth Not available.
UV 1 out of 12
Pollen .10 out of 12
Air Quality Not available.
Flu Activity Not available.
METAR KLBE 261650Z VRB05KT 1/2SM -SN OVC002 00/00 A3006

More Conditions Fewer Conditions

Pressure 30.06 in
Visibility 0.5 miles
Clouds Overcast 200 ft
Windchill 33 °F
Dew Point 31 °F
Humidity 95%
Rainfall 0.00 in
Snow Depth Not available.
UV 1 out of 12
Pollen .10 out of 12
Air Quality Not available.
Flu Activity Not available.
METAR KLBE 261650Z VRB05KT 1/2SM -SN OVC002 00/00 A3006

More Conditions Fewer Conditions

Nowcast | as of 12:15 PM EST on November 26, 2014

Expect steady snow to continue into early afternoon. A band of heavier snow from near McConnellsburg and Orbisonia northeastward to Port Royal to Mifflinburg and Williamsport will produce snowfall rates greater than an inch per hours at times. Roads will be slick and possibly snow covered...so use extra caution if traveling today.

×

10-Day Weather Forecast

Almanac

Astronomy

Nov. 26, 2014 Rise Set
Actual Time
Civil Twilight
Nautical Twilight
Astronomical Twilight
Moon
Length of Visible Light
Length of Day
Tomorrow will be .
, % of the Moon is Illuminated

Today's Extremes

State Highs State Lows

Community

WunderPhotos

Upload Photos

1,773,813 photos uploaded!

WunderBlogs® & News

Nearby

Air Quality

  Air Quality AQ Index Pollutant
Not available.

Snow Depth

Station Depth Elevation

Earthquake Activity

City Distance Mag. Time & Date
Minimum magnitude displayed is 2.5.

Coastal Water Temperatures

Place Temperature

Nearby Weather Stations